sensor_id;sensor_type;location;lat;lon;timestamp;P1;durP1;ratioP1;P2;durP2;ratioP2
23346;SDS011;36852;45.466;11.066;2022-11-20T00:01:32;7.62;;;2.65;;
23346;SDS011;36852;45.466;11.066;2022-11-20T00:04:00;4.03;;;2.20;;
23346;SDS011;36852;45.466;11.066;2022-11-20T00:06:28;4.42;;;2.37;;
23346;SDS011;36852;45.466;11.066;2022-11-20T00:08:59;4.25;;;2.67;;
23346;SDS011;36852;45.466;11.066;2022-11-20T00:11:28;3.77;;;2.55;;
23346;SDS011;36852;45.466;11.066;2022-11-20T00:13:58;4.17;;;2.62;;
23346;SDS011;36852;45.466;11.066;2022-11-20T00:16:29;3.85;;;2.40;;
23346;SDS011;36852;45.466;11.066;2022-11-20T00:18:59;7.83;;;3.25;;
23346;SDS011;36852;45.466;11.066;2022-11-20T00:21:27;5.53;;;3.62;;
23346;SDS011;36852;45.466;11.066;2022-11-20T00:23:56;6.00;;;3.37;;
23346;SDS011;36852;45.466;11.066;2022-11-20T00:26:25;6.00;;;3.37;;
23346;SDS011;36852;45.466;11.066;2022-11-20T00:28:55;7.42;;;3.27;;
23346;SDS011;36852;45.466;11.066;2022-11-20T00:31:28;6.35;;;3.40;;
23346;SDS011;36852;45.466;11.066;2022-11-20T00:33:56;5.78;;;3.37;;
23346;SDS011;36852;45.466;11.066;2022-11-20T00:36:26;9.53;;;2.92;;
23346;SDS011;36852;45.466;11.066;2022-11-20T00:38:56;4.42;;;2.62;;
23346;SDS011;36852;45.466;11.066;2022-11-20T00:41:25;4.22;;;2.55;;
23346;SDS011;36852;45.466;11.066;2022-11-20T00:43:56;3.12;;;2.25;;
23346;SDS011;36852;45.466;11.066;2022-11-20T00:46:26;4.60;;;2.70;;
23346;SDS011;36852;45.466;11.066;2022-11-20T00:48:55;4.10;;;2.08;;
23346;SDS011;36852;45.466;11.066;2022-11-20T00:54:06;3.17;;;2.35;;
23346;SDS011;36852;45.466;11.066;2022-11-20T00:56:35;6.10;;;2.15;;
23346;SDS011;36852;45.466;11.066;2022-11-20T00:59:03;2.95;;;2.35;;
23346;SDS011;36852;45.466;11.066;2022-11-20T01:01:31;2.92;;;2.27;;
23346;SDS011;36852;45.466;11.066;2022-11-20T01:03:59;3.95;;;2.40;;
23346;SDS011;36852;45.466;11.066;2022-11-20T01:06:31;3.65;;;2.33;;
23346;SDS011;36852;45.466;11.066;2022-11-20T01:09:02;5.90;;;2.08;;
23346;SDS011;36852;45.466;11.066;2022-11-20T01:11:34;2.90;;;2.35;;
23346;SDS011;36852;45.466;11.066;2022-11-20T01:14:06;3.65;;;2.12;;
23346;SDS011;36852;45.466;11.066;2022-11-20T01:16:37;3.80;;;1.98;;
23346;SDS011;36852;45.466;11.066;2022-11-20T01:19:12;6.57;;;2.67;;
23346;SDS011;36852;45.466;11.066;2022-11-20T01:21:44;3.58;;;2.40;;
23346;SDS011;36852;45.466;11.066;2022-11-20T01:24:14;3.77;;;2.55;;
23346;SDS011;36852;45.466;11.066;2022-11-20T01:26:47;3.52;;;1.77;;
23346;SDS011;36852;45.466;11.066;2022-11-20T01:29:18;3.30;;;1.92;;
23346;SDS011;36852;45.466;11.066;2022-11-20T01:31:48;5.25;;;2.37;;
23346;SDS011;36852;45.466;11.066;2022-11-20T01:34:18;2.95;;;2.10;;
23346;SDS011;36852;45.466;11.066;2022-11-20T01:36:47;3.35;;;2.02;;
23346;SDS011;36852;45.466;11.066;2022-11-20T01:39:16;3.55;;;2.50;;
23346;SDS011;36852;45.466;11.066;2022-11-20T01:41:49;5.45;;;2.30;;
23346;SDS011;36852;45.466;11.066;2022-11-20T01:44:53;4.83;;;2.22;;
23346;SDS011;36852;45.466;11.066;2022-11-20T01:47:49;2.83;;;1.95;;
23346;SDS011;36852;45.466;11.066;2022-11-20T01:50:17;3.22;;;2.08;;
23346;SDS011;36852;45.466;11.066;2022-11-20T01:52:42;4.97;;;2.10;;
23346;SDS011;36852;45.466;11.066;2022-11-20T01:55:15;2.45;;;1.92;;
23346;SDS011;36852;45.466;11.066;2022-11-20T01:57:48;5.83;;;1.90;;
23346;SDS011;36852;45.466;11.066;2022-11-20T02:00:16;2.95;;;2.17;;
23346;SDS011;36852;45.466;11.066;2022-11-20T02:02:48;2.25;;;1.82;;
23346;SDS011;36852;45.466;11.066;2022-11-20T02:05:22;2.45;;;2.00;;
23346;SDS011;36852;45.466;11.066;2022-11-20T02:07:52;4.22;;;2.35;;
23346;SDS011;36852;45.466;11.066;2022-11-20T02:10:23;4.28;;;2.30;;
23346;SDS011;36852;45.466;11.066;2022-11-20T02:12:52;2.75;;;1.92;;
23346;SDS011;36852;45.466;11.066;2022-11-20T02:15:41;2.95;;;1.77;;
23346;SDS011;36852;45.466;11.066;2022-11-20T02:18:10;4.20;;;2.30;;
23346;SDS011;36852;45.466;11.066;2022-11-20T02:20:40;2.95;;;2.08;;
23346;SDS011;36852;45.466;11.066;2022-11-20T02:26:00;2.52;;;1.85;;
23346;SDS011;36852;45.466;11.066;2022-11-20T02:28:31;2.95;;;2.17;;
23346;SDS011;36852;45.466;11.066;2022-11-20T02:33:35;3.58;;;1.92;;
23346;SDS011;36852;45.466;11.066;2022-11-20T02:36:03;4.55;;;2.27;;
23346;SDS011;36852;45.466;11.066;2022-11-20T02:38:31;3.92;;;2.10;;
23346;SDS011;36852;45.466;11.066;2022-11-20T02:40:59;2.37;;;2.17;;
23346;SDS011;36852;45.466;11.066;2022-11-20T02:43:27;3.67;;;2.10;;
23346;SDS011;36852;45.466;11.066;2022-11-20T02:45:55;2.95;;;2.20;;
23346;SDS011;36852;45.466;11.066;2022-11-20T02:48:24;5.55;;;2.40;;
23346;SDS011;36852;45.466;11.066;2022-11-20T02:50:53;2.70;;;1.70;;
23346;SDS011;36852;45.466;11.066;2022-11-20T02:53:22;3.58;;;2.52;;
23346;SDS011;36852;45.466;11.066;2022-11-20T02:55:54;3.12;;;2.15;;
23346;SDS011;36852;45.466;11.066;2022-11-20T02:58:22;5.62;;;2.37;;
23346;SDS011;36852;45.466;11.066;2022-11-20T03:00:51;2.70;;;2.27;;
23346;SDS011;36852;45.466;11.066;2022-11-20T03:03:19;2.60;;;2.02;;
23346;SDS011;36852;45.466;11.066;2022-11-20T03:05:47;4.30;;;2.20;;
23346;SDS011;36852;45.466;11.066;2022-11-20T03:08:15;4.75;;;2.08;;
23346;SDS011;36852;45.466;11.066;2022-11-20T03:10:43;3.37;;;2.17;;
23346;SDS011;36852;45.466;11.066;2022-11-20T03:13:14;2.92;;;2.27;;
23346;SDS011;36852;45.466;11.066;2022-11-20T03:15:42;3.60;;;2.35;;
23346;SDS011;36852;45.466;11.066;2022-11-20T03:18:10;2.80;;;1.92;;
23346;SDS011;36852;45.466;11.066;2022-11-20T03:20:40;2.92;;;1.80;;
23346;SDS011;36852;45.466;11.066;2022-11-20T03:23:09;5.12;;;2.30;;
23346;SDS011;36852;45.466;11.066;2022-11-20T03:25:37;2.70;;;1.95;;
23346;SDS011;36852;45.466;11.066;2022-11-20T03:28:05;2.75;;;2.20;;
23346;SDS011;36852;45.466;11.066;2022-11-20T03:30:33;2.12;;;1.82;;
23346;SDS011;36852;45.466;11.066;2022-11-20T03:33:02;4.30;;;2.37;;
23346;SDS011;36852;45.466;11.066;2022-11-20T03:35:30;5.37;;;2.20;;
23346;SDS011;36852;45.466;11.066;2022-11-20T03:37:58;2.40;;;2.05;;
23346;SDS011;36852;45.466;11.066;2022-11-20T03:40:27;2.77;;;2.12;;
23346;SDS011;36852;45.466;11.066;2022-11-20T03:42:58;4.35;;;2.35;;
23346;SDS011;36852;45.466;11.066;2022-11-20T03:45:27;3.87;;;2.05;;
23346;SDS011;36852;45.466;11.066;2022-11-20T03:47:55;7.58;;;2.45;;
23346;SDS011;36852;45.466;11.066;2022-11-20T03:50:23;3.95;;;2.45;;
23346;SDS011;36852;45.466;11.066;2022-11-20T03:52:52;2.27;;;1.90;;
23346;SDS011;36852;45.466;11.066;2022-11-20T03:55:20;3.52;;;1.95;;
23346;SDS011;36852;45.466;11.066;2022-11-20T03:57:49;4.40;;;2.55;;
23346;SDS011;36852;45.466;11.066;2022-11-20T04:00:17;4.10;;;2.15;;
23346;SDS011;36852;45.466;11.066;2022-11-20T04:02:45;2.80;;;2.25;;
23346;SDS011;36852;45.466;11.066;2022-11-20T04:05:14;2.90;;;1.95;;
23346;SDS011;36852;45.466;11.066;2022-11-20T04:07:42;3.52;;;2.10;;
23346;SDS011;36852;45.466;11.066;2022-11-20T04:10:10;4.00;;;2.10;;
23346;SDS011;36852;45.466;11.066;2022-11-20T04:12:39;3.98;;;2.12;;
23346;SDS011;36852;45.466;11.066;2022-11-20T04:15:10;2.55;;;1.98;;
23346;SDS011;36852;45.466;11.066;2022-11-20T04:17:38;4.12;;;2.22;;
23346;SDS011;36852;45.466;11.066;2022-11-20T04:20:07;3.50;;;2.08;;
23346;SDS011;36852;45.466;11.066;2022-11-20T04:22:35;4.10;;;2.02;;
23346;SDS011;36852;45.466;11.066;2022-11-20T04:25:03;3.05;;;2.12;;
23346;SDS011;36852;45.466;11.066;2022-11-20T04:27:32;3.45;;;2.27;;
23346;SDS011;36852;45.466;11.066;2022-11-20T04:30:00;5.20;;;2.50;;
23346;SDS011;36852;45.466;11.066;2022-11-20T04:32:28;3.27;;;1.98;;
23346;SDS011;36852;45.466;11.066;2022-11-20T04:34:56;4.37;;;2.22;;
23346;SDS011;36852;45.466;11.066;2022-11-20T04:37:24;4.20;;;2.05;;
23346;SDS011;36852;45.466;11.066;2022-11-20T04:39:52;3.52;;;2.17;;
23346;SDS011;36852;45.466;11.066;2022-11-20T04:42:24;4.03;;;2.10;;
23346;SDS011;36852;45.466;11.066;2022-11-20T04:44:57;3.47;;;2.00;;
23346;SDS011;36852;45.466;11.066;2022-11-20T04:47:25;6.85;;;2.22;;
23346;SDS011;36852;45.466;11.066;2022-11-20T04:49:53;2.77;;;2.12;;
23346;SDS011;36852;45.466;11.066;2022-11-20T04:52:22;4.10;;;2.70;;
23346;SDS011;36852;45.466;11.066;2022-11-20T04:54:50;6.03;;;3.00;;
23346;SDS011;36852;45.466;11.066;2022-11-20T04:57:19;5.67;;;2.40;;
23346;SDS011;36852;45.466;11.066;2022-11-20T04:59:58;4.10;;;2.10;;
23346;SDS011;36852;45.466;11.066;2022-11-20T05:02:27;4.40;;;2.15;;
23346;SDS011;36852;45.466;11.066;2022-11-20T05:04:56;2.75;;;2.02;;
23346;SDS011;36852;45.466;11.066;2022-11-20T05:07:24;4.72;;;2.37;;
23346;SDS011;36852;45.466;11.066;2022-11-20T05:09:51;3.67;;;2.25;;
23346;SDS011;36852;45.466;11.066;2022-11-20T05:12:19;4.10;;;2.50;;
23346;SDS011;36852;45.466;11.066;2022-11-20T05:14:48;3.98;;;2.60;;
23346;SDS011;36852;45.466;11.066;2022-11-20T05:17:16;4.03;;;2.42;;
23346;SDS011;36852;45.466;11.066;2022-11-20T05:19:45;3.98;;;2.50;;
23346;SDS011;36852;45.466;11.066;2022-11-20T05:22:15;3.77;;;2.30;;
23346;SDS011;36852;45.466;11.066;2022-11-20T05:24:47;4.40;;;2.47;;
23346;SDS011;36852;45.466;11.066;2022-11-20T05:27:15;3.37;;;2.27;;
23346;SDS011;36852;45.466;11.066;2022-11-20T05:29:44;4.95;;;2.00;;
23346;SDS011;36852;45.466;11.066;2022-11-20T05:32:12;4.10;;;2.42;;
23346;SDS011;36852;45.466;11.066;2022-11-20T05:34:42;5.75;;;2.37;;
23346;SDS011;36852;45.466;11.066;2022-11-20T05:37:10;3.70;;;1.90;;
23346;SDS011;36852;45.466;11.066;2022-11-20T05:39:38;2.62;;;2.10;;
23346;SDS011;36852;45.466;11.066;2022-11-20T05:42:07;4.47;;;2.47;;
23346;SDS011;36852;45.466;11.066;2022-11-20T05:44:54;6.17;;;2.35;;
23346;SDS011;36852;45.466;11.066;2022-11-20T05:47:22;5.17;;;2.20;;
23346;SDS011;36852;45.466;11.066;2022-11-20T05:49:49;4.17;;;2.25;;
23346;SDS011;36852;45.466;11.066;2022-11-20T05:52:18;3.27;;;2.35;;
23346;SDS011;36852;45.466;11.066;2022-11-20T05:54:46;4.42;;;1.80;;
23346;SDS011;36852;45.466;11.066;2022-11-20T05:57:14;5.17;;;1.72;;
23346;SDS011;36852;45.466;11.066;2022-11-20T05:59:44;3.40;;;2.40;;
23346;SDS011;36852;45.466;11.066;2022-11-20T06:02:11;6.37;;;2.30;;
23346;SDS011;36852;45.466;11.066;2022-11-20T06:04:39;3.87;;;2.02;;
23346;SDS011;36852;45.466;11.066;2022-11-20T06:07:10;2.90;;;2.00;;
23346;SDS011;36852;45.466;11.066;2022-11-20T06:09:39;3.50;;;2.10;;
23346;SDS011;36852;45.466;11.066;2022-11-20T06:12:07;2.52;;;1.82;;
23346;SDS011;36852;45.466;11.066;2022-11-20T06:14:35;5.20;;;1.90;;
23346;SDS011;36852;45.466;11.066;2022-11-20T06:17:03;3.15;;;2.00;;
23346;SDS011;36852;45.466;11.066;2022-11-20T06:19:31;3.15;;;2.00;;
23346;SDS011;36852;45.466;11.066;2022-11-20T06:21:58;3.22;;;2.37;;
23346;SDS011;36852;45.466;11.066;2022-11-20T06:24:26;3.00;;;2.05;;
23346;SDS011;36852;45.466;11.066;2022-11-20T06:26:55;3.58;;;2.30;;
23346;SDS011;36852;45.466;11.066;2022-11-20T06:29:23;2.83;;;2.00;;
23346;SDS011;36852;45.466;11.066;2022-11-20T06:31:53;3.98;;;1.98;;
23346;SDS011;36852;45.466;11.066;2022-11-20T06:34:22;3.15;;;2.15;;
23346;SDS011;36852;45.466;11.066;2022-11-20T06:36:51;3.12;;;2.20;;
23346;SDS011;36852;45.466;11.066;2022-11-20T06:39:19;4.03;;;2.30;;
23346;SDS011;36852;45.466;11.066;2022-11-20T06:41:48;7.12;;;2.42;;
23346;SDS011;36852;45.466;11.066;2022-11-20T06:44:18;3.40;;;2.27;;
23346;SDS011;36852;45.466;11.066;2022-11-20T06:46:45;2.72;;;1.80;;
23346;SDS011;36852;45.466;11.066;2022-11-20T06:49:14;2.83;;;1.80;;
23346;SDS011;36852;45.466;11.066;2022-11-20T06:51:44;7.58;;;2.25;;
23346;SDS011;36852;45.466;11.066;2022-11-20T06:54:12;3.52;;;2.30;;
23346;SDS011;36852;45.466;11.066;2022-11-20T06:56:40;2.70;;;2.10;;
23346;SDS011;36852;45.466;11.066;2022-11-20T06:59:08;7.75;;;2.50;;
23346;SDS011;36852;45.466;11.066;2022-11-20T07:01:36;2.77;;;2.17;;
23346;SDS011;36852;45.466;11.066;2022-11-20T07:04:04;5.72;;;2.20;;
23346;SDS011;36852;45.466;11.066;2022-11-20T07:06:31;3.77;;;2.40;;
23346;SDS011;36852;45.466;11.066;2022-11-20T07:09:00;4.92;;;2.27;;
23346;SDS011;36852;45.466;11.066;2022-11-20T07:11:28;3.52;;;2.27;;
23346;SDS011;36852;45.466;11.066;2022-11-20T07:13:56;3.25;;;2.15;;
23346;SDS011;36852;45.466;11.066;2022-11-20T07:16:24;4.97;;;2.30;;
23346;SDS011;36852;45.466;11.066;2022-11-20T07:18:53;5.95;;;2.05;;
23346;SDS011;36852;45.466;11.066;2022-11-20T07:21:21;5.03;;;2.10;;
23346;SDS011;36852;45.466;11.066;2022-11-20T07:23:52;4.00;;;2.33;;
23346;SDS011;36852;45.466;11.066;2022-11-20T07:26:20;2.98;;;1.95;;
23346;SDS011;36852;45.466;11.066;2022-11-20T07:28:49;10.25;;;3.42;;
23346;SDS011;36852;45.466;11.066;2022-11-20T07:31:17;8.13;;;3.52;;
23346;SDS011;36852;45.466;11.066;2022-11-20T07:33:46;6.28;;;2.40;;
23346;SDS011;36852;45.466;11.066;2022-11-20T07:36:14;3.67;;;2.20;;
23346;SDS011;36852;45.466;11.066;2022-11-20T07:38:43;6.08;;;2.55;;
23346;SDS011;36852;45.466;11.066;2022-11-20T07:41:11;4.75;;;2.20;;
23346;SDS011;36852;45.466;11.066;2022-11-20T07:43:39;4.20;;;2.17;;
23346;SDS011;36852;45.466;11.066;2022-11-20T07:46:07;5.28;;;2.35;;
23346;SDS011;36852;45.466;11.066;2022-11-20T07:48:35;3.17;;;2.35;;
23346;SDS011;36852;45.466;11.066;2022-11-20T07:51:04;3.90;;;2.30;;
23346;SDS011;36852;45.466;11.066;2022-11-20T07:53:32;4.95;;;2.37;;
23346;SDS011;36852;45.466;11.066;2022-11-20T07:56:00;3.35;;;2.05;;
23346;SDS011;36852;45.466;11.066;2022-11-20T07:58:29;4.62;;;3.10;;
23346;SDS011;36852;45.466;11.066;2022-11-20T08:00:57;4.22;;;3.55;;
23346;SDS011;36852;45.466;11.066;2022-11-20T08:03:29;5.40;;;3.95;;
23346;SDS011;36852;45.466;11.066;2022-11-20T08:05:58;4.12;;;3.72;;
23346;SDS011;36852;45.466;11.066;2022-11-20T08:08:29;5.50;;;4.12;;
23346;SDS011;36852;45.466;11.066;2022-11-20T08:10:58;5.05;;;3.80;;
23346;SDS011;36852;45.466;11.066;2022-11-20T08:13:45;4.35;;;3.52;;
23346;SDS011;36852;45.466;11.066;2022-11-20T08:16:31;7.00;;;4.17;;
23346;SDS011;36852;45.466;11.066;2022-11-20T08:19:00;5.75;;;4.05;;
23346;SDS011;36852;45.466;11.066;2022-11-20T08:21:28;4.75;;;3.20;;
23346;SDS011;36852;45.466;11.066;2022-11-20T08:23:59;5.37;;;3.62;;
23346;SDS011;36852;45.466;11.066;2022-11-20T08:26:28;6.28;;;4.20;;
23346;SDS011;36852;45.466;11.066;2022-11-20T08:28:56;11.43;;;4.20;;
23346;SDS011;36852;45.466;11.066;2022-11-20T08:31:28;5.85;;;3.77;;
23346;SDS011;36852;45.466;11.066;2022-11-20T08:33:56;5.05;;;3.33;;
23346;SDS011;36852;45.466;11.066;2022-11-20T08:36:24;4.47;;;3.00;;
23346;SDS011;36852;45.466;11.066;2022-11-20T08:38:53;8.08;;;4.87;;
23346;SDS011;36852;45.466;11.066;2022-11-20T08:41:22;7.17;;;4.37;;
23346;SDS011;36852;45.466;11.066;2022-11-20T08:44:02;6.10;;;3.60;;
23346;SDS011;36852;45.466;11.066;2022-11-20T08:46:37;5.25;;;3.47;;
23346;SDS011;36852;45.466;11.066;2022-11-20T08:49:04;4.85;;;3.92;;
23346;SDS011;36852;45.466;11.066;2022-11-20T08:51:34;6.72;;;2.98;;
23346;SDS011;36852;45.466;11.066;2022-11-20T08:54:03;3.80;;;2.90;;
23346;SDS011;36852;45.466;11.066;2022-11-20T08:56:32;4.12;;;2.80;;
23346;SDS011;36852;45.466;11.066;2022-11-20T09:01:36;4.00;;;2.67;;
23346;SDS011;36852;45.466;11.066;2022-11-20T09:04:04;4.10;;;2.62;;
23346;SDS011;36852;45.466;11.066;2022-11-20T09:06:33;4.62;;;2.37;;
23346;SDS011;36852;45.466;11.066;2022-11-20T09:09:01;4.90;;;3.00;;
23346;SDS011;36852;45.466;11.066;2022-11-20T09:11:31;3.72;;;2.30;;
23346;SDS011;36852;45.466;11.066;2022-11-20T09:14:00;4.12;;;2.90;;
23346;SDS011;36852;45.466;11.066;2022-11-20T09:16:30;3.50;;;3.00;;
23346;SDS011;36852;45.466;11.066;2022-11-20T09:18:58;8.23;;;4.03;;
23346;SDS011;36852;45.466;11.066;2022-11-20T09:21:28;4.12;;;3.15;;
23346;SDS011;36852;45.466;11.066;2022-11-20T09:23:56;4.53;;;3.10;;
23346;SDS011;36852;45.466;11.066;2022-11-20T09:26:24;4.25;;;3.22;;
23346;SDS011;36852;45.466;11.066;2022-11-20T09:28:52;4.85;;;3.22;;
23346;SDS011;36852;45.466;11.066;2022-11-20T09:31:24;6.47;;;4.40;;
23346;SDS011;36852;45.466;11.066;2022-11-20T09:33:53;16.17;;;8.78;;
23346;SDS011;36852;45.466;11.066;2022-11-20T09:36:21;7.85;;;4.87;;
23346;SDS011;36852;45.466;11.066;2022-11-20T09:38:49;8.15;;;4.35;;
23346;SDS011;36852;45.466;11.066;2022-11-20T09:47:07;2.85;;;2.50;;
23346;SDS011;36852;45.466;11.066;2022-11-20T09:49:52;1.90;;;1.00;;
23346;SDS011;36852;45.466;11.066;2022-11-20T09:55:12;3.17;;;1.60;;
23346;SDS011;36852;45.466;11.066;2022-11-20T09:57:43;2.87;;;1.80;;
23346;SDS011;36852;45.466;11.066;2022-11-20T10:00:14;3.45;;;1.80;;
23346;SDS011;36852;45.466;11.066;2022-11-20T10:08:07;4.37;;;2.10;;
23346;SDS011;36852;45.466;11.066;2022-11-20T10:10:35;2.85;;;2.15;;
23346;SDS011;36852;45.466;11.066;2022-11-20T10:18:55;4.12;;;2.83;;
23346;SDS011;36852;45.466;11.066;2022-11-20T10:29:20;5.55;;;3.27;;
23346;SDS011;36852;45.466;11.066;2022-11-20T10:31:59;4.10;;;3.10;;
23346;SDS011;36852;45.466;11.066;2022-11-20T10:37:27;4.65;;;2.62;;
23346;SDS011;36852;45.466;11.066;2022-11-20T10:43:08;6.35;;;3.05;;
23346;SDS011;36852;45.466;11.066;2022-11-20T10:45:50;6.28;;;3.33;;
23346;SDS011;36852;45.466;11.066;2022-11-20T10:48:26;5.20;;;2.65;;
23346;SDS011;36852;45.466;11.066;2022-11-20T10:56:40;9.38;;;5.60;;
23346;SDS011;36852;45.466;11.066;2022-11-20T11:01:53;4.35;;;3.22;;
23346;SDS011;36852;45.466;11.066;2022-11-20T11:04:38;9.15;;;5.35;;
23346;SDS011;36852;45.466;11.066;2022-11-20T11:07:10;8.13;;;4.28;;
23346;SDS011;36852;45.466;11.066;2022-11-20T11:09:55;6.20;;;3.40;;
23346;SDS011;36852;45.466;11.066;2022-11-20T11:12:21;4.35;;;3.35;;
23346;SDS011;36852;45.466;11.066;2022-11-20T11:14:55;5.22;;;3.10;;
23346;SDS011;36852;45.466;11.066;2022-11-20T11:17:31;5.17;;;3.37;;
23346;SDS011;36852;45.466;11.066;2022-11-20T11:22:45;6.40;;;3.10;;
23346;SDS011;36852;45.466;11.066;2022-11-20T11:28:02;3.77;;;2.85;;
23346;SDS011;36852;45.466;11.066;2022-11-20T11:30:42;4.95;;;2.80;;
23346;SDS011;36852;45.466;11.066;2022-11-20T11:33:18;3.98;;;2.70;;
23346;SDS011;36852;45.466;11.066;2022-11-20T11:35:52;5.50;;;3.33;;
23346;SDS011;36852;45.466;11.066;2022-11-20T11:41:06;4.50;;;2.83;;
23346;SDS011;36852;45.466;11.066;2022-11-20T11:43:36;4.78;;;3.05;;
23346;SDS011;36852;45.466;11.066;2022-11-20T11:46:27;6.20;;;3.33;;
23346;SDS011;36852;45.466;11.066;2022-11-20T11:49:08;5.22;;;3.72;;
23346;SDS011;36852;45.466;11.066;2022-11-20T11:51:41;4.35;;;3.37;;
23346;SDS011;36852;45.466;11.066;2022-11-20T11:54:15;5.83;;;2.70;;
23346;SDS011;36852;45.466;11.066;2022-11-20T11:57:01;5.08;;;3.02;;
23346;SDS011;36852;45.466;11.066;2022-11-20T12:05:26;4.72;;;3.33;;
23346;SDS011;36852;45.466;11.066;2022-11-20T12:16:35;6.50;;;3.67;;
23346;SDS011;36852;45.466;11.066;2022-11-20T12:19:13;15.08;;;4.65;;
23346;SDS011;36852;45.466;11.066;2022-11-20T12:25:38;8.85;;;4.95;;
23346;SDS011;36852;45.466;11.066;2022-11-20T12:30:18;10.35;;;7.60;;
23346;SDS011;36852;45.466;11.066;2022-11-20T12:41:07;9.23;;;7.17;;
23346;SDS011;36852;45.466;11.066;2022-11-20T12:44:00;11.97;;;7.65;;
23346;SDS011;36852;45.466;11.066;2022-11-20T12:55:20;12.20;;;7.85;;
23346;SDS011;36852;45.466;11.066;2022-11-20T13:00:22;13.83;;;8.88;;
23346;SDS011;36852;45.466;11.066;2022-11-20T13:05:51;19.48;;;10.85;;
23346;SDS011;36852;45.466;11.066;2022-11-20T13:08:21;16.35;;;11.00;;
23346;SDS011;36852;45.466;11.066;2022-11-20T13:19:55;23.15;;;13.60;;
23346;SDS011;36852;45.466;11.066;2022-11-20T13:22:28;21.80;;;15.30;;
23346;SDS011;36852;45.466;11.066;2022-11-20T13:25:01;19.57;;;13.05;;
23346;SDS011;36852;45.466;11.066;2022-11-20T13:27:46;19.75;;;13.20;;
23346;SDS011;36852;45.466;11.066;2022-11-20T13:30:16;19.23;;;13.00;;
23346;SDS011;36852;45.466;11.066;2022-11-20T13:32:50;21.20;;;14.20;;
23346;SDS011;36852;45.466;11.066;2022-11-20T13:35:53;18.60;;;13.70;;
23346;SDS011;36852;45.466;11.066;2022-11-20T13:38:16;17.42;;;13.08;;
23346;SDS011;36852;45.466;11.066;2022-11-20T13:43:28;22.27;;;15.45;;
23346;SDS011;36852;45.466;11.066;2022-11-20T13:45:59;30.65;;;21.25;;
23346;SDS011;36852;45.466;11.066;2022-11-20T13:48:30;18.48;;;14.28;;
23346;SDS011;36852;45.466;11.066;2022-11-20T14:02:14;19.23;;;15.08;;
23346;SDS011;36852;45.466;11.066;2022-11-20T14:04:48;18.17;;;15.18;;
23346;SDS011;36852;45.466;11.066;2022-11-20T14:07:19;19.75;;;16.57;;
23346;SDS011;36852;45.466;11.066;2022-11-20T14:09:53;20.60;;;17.32;;
23346;SDS011;36852;45.466;11.066;2022-11-20T14:12:28;22.85;;;16.77;;
23346;SDS011;36852;45.466;11.066;2022-11-20T14:14:58;18.50;;;15.13;;
23346;SDS011;36852;45.466;11.066;2022-11-20T14:17:30;20.00;;;14.80;;
23346;SDS011;36852;45.466;11.066;2022-11-20T14:20:04;22.45;;;16.50;;
23346;SDS011;36852;45.466;11.066;2022-11-20T14:22:33;20.05;;;16.17;;
23346;SDS011;36852;45.466;11.066;2022-11-20T14:25:03;21.97;;;18.25;;
23346;SDS011;36852;45.466;11.066;2022-11-20T14:27:37;19.85;;;16.10;;
23346;SDS011;36852;45.466;11.066;2022-11-20T14:30:12;21.17;;;16.20;;
23346;SDS011;36852;45.466;11.066;2022-11-20T14:32:40;22.05;;;16.50;;
23346;SDS011;36852;45.466;11.066;2022-11-20T14:35:14;19.40;;;15.60;;
23346;SDS011;36852;45.466;11.066;2022-11-20T14:37:46;19.80;;;15.48;;
23346;SDS011;36852;45.466;11.066;2022-11-20T14:40:22;23.30;;;19.37;;
23346;SDS011;36852;45.466;11.066;2022-11-20T14:43:23;26.05;;;22.50;;
23346;SDS011;36852;45.466;11.066;2022-11-20T14:48:31;20.00;;;16.63;;
23346;SDS011;36852;45.466;11.066;2022-11-20T14:51:04;22.22;;;17.67;;
23346;SDS011;36852;45.466;11.066;2022-11-20T14:53:31;18.95;;;16.32;;
23346;SDS011;36852;45.466;11.066;2022-11-20T14:56:00;21.68;;;17.00;;
23346;SDS011;36852;45.466;11.066;2022-11-20T14:58:29;22.73;;;17.48;;
23346;SDS011;36852;45.466;11.066;2022-11-20T15:01:01;25.17;;;20.17;;
23346;SDS011;36852;45.466;11.066;2022-11-20T15:03:39;38.63;;;26.48;;
23346;SDS011;36852;45.466;11.066;2022-11-20T15:06:05;26.45;;;19.85;;
23346;SDS011;36852;45.466;11.066;2022-11-20T15:08:34;23.30;;;18.62;;
23346;SDS011;36852;45.466;11.066;2022-11-20T15:11:03;26.23;;;18.23;;
23346;SDS011;36852;45.466;11.066;2022-11-20T15:13:34;24.02;;;17.82;;
23346;SDS011;36852;45.466;11.066;2022-11-20T15:16:18;39.55;;;29.40;;
23346;SDS011;36852;45.466;11.066;2022-11-20T15:18:47;34.45;;;22.35;;
23346;SDS011;36852;45.466;11.066;2022-11-20T15:21:16;30.27;;;20.08;;
23346;SDS011;36852;45.466;11.066;2022-11-20T15:23:46;27.13;;;19.45;;
23346;SDS011;36852;45.466;11.066;2022-11-20T15:26:14;28.42;;;19.10;;
23346;SDS011;36852;45.466;11.066;2022-11-20T15:28:46;26.30;;;19.57;;
23346;SDS011;36852;45.466;11.066;2022-11-20T15:31:18;27.17;;;18.92;;
23346;SDS011;36852;45.466;11.066;2022-11-20T15:33:49;24.25;;;18.65;;
23346;SDS011;36852;45.466;11.066;2022-11-20T15:36:17;33.00;;;22.87;;
23346;SDS011;36852;45.466;11.066;2022-11-20T15:38:46;26.75;;;20.75;;
23346;SDS011;36852;45.466;11.066;2022-11-20T15:41:14;27.13;;;19.67;;
23346;SDS011;36852;45.466;11.066;2022-11-20T15:43:42;27.32;;;20.23;;
23346;SDS011;36852;45.466;11.066;2022-11-20T15:46:13;29.70;;;20.35;;
23346;SDS011;36852;45.466;11.066;2022-11-20T15:48:44;31.85;;;22.02;;
23346;SDS011;36852;45.466;11.066;2022-11-20T15:51:19;29.82;;;19.00;;
23346;SDS011;36852;45.466;11.066;2022-11-20T15:53:56;26.95;;;18.40;;
23346;SDS011;36852;45.466;11.066;2022-11-20T15:56:25;23.87;;;17.32;;
23346;SDS011;36852;45.466;11.066;2022-11-20T15:58:54;23.45;;;17.62;;
23346;SDS011;36852;45.466;11.066;2022-11-20T16:01:22;23.40;;;15.43;;
23346;SDS011;36852;45.466;11.066;2022-11-20T16:03:51;25.72;;;16.73;;
23346;SDS011;36852;45.466;11.066;2022-11-20T16:06:20;25.85;;;16.10;;
23346;SDS011;36852;45.466;11.066;2022-11-20T16:08:48;23.18;;;16.42;;
23346;SDS011;36852;45.466;11.066;2022-11-20T16:11:17;31.62;;;15.58;;
23346;SDS011;36852;45.466;11.066;2022-11-20T16:13:45;31.77;;;17.40;;
23346;SDS011;36852;45.466;11.066;2022-11-20T16:16:32;27.80;;;16.77;;
23346;SDS011;36852;45.466;11.066;2022-11-20T16:19:03;27.48;;;16.00;;
23346;SDS011;36852;45.466;11.066;2022-11-20T16:21:31;28.35;;;17.17;;
23346;SDS011;36852;45.466;11.066;2022-11-20T16:24:03;28.77;;;17.25;;
23346;SDS011;36852;45.466;11.066;2022-11-20T16:26:32;26.75;;;16.40;;
23346;SDS011;36852;45.466;11.066;2022-11-20T16:29:01;28.42;;;17.48;;
23346;SDS011;36852;45.466;11.066;2022-11-20T16:31:30;29.85;;;17.80;;
23346;SDS011;36852;45.466;11.066;2022-11-20T16:34:03;28.40;;;17.77;;
23346;SDS011;36852;45.466;11.066;2022-11-20T16:36:38;24.70;;;16.12;;
23346;SDS011;36852;45.466;11.066;2022-11-20T16:39:12;26.50;;;17.60;;
23346;SDS011;36852;45.466;11.066;2022-11-20T16:41:42;27.55;;;17.27;;
23346;SDS011;36852;45.466;11.066;2022-11-20T16:44:10;23.80;;;16.48;;
23346;SDS011;36852;45.466;11.066;2022-11-20T16:46:38;24.00;;;16.77;;
23346;SDS011;36852;45.466;11.066;2022-11-20T16:49:10;29.02;;;17.37;;
23346;SDS011;36852;45.466;11.066;2022-11-20T16:51:40;27.65;;;16.12;;
23346;SDS011;36852;45.466;11.066;2022-11-20T16:54:09;26.93;;;17.07;;
23346;SDS011;36852;45.466;11.066;2022-11-20T16:56:38;30.90;;;18.50;;
23346;SDS011;36852;45.466;11.066;2022-11-20T16:59:07;25.15;;;17.12;;